sensor_id;sensor_type;location;lat;lon;timestamp;pressure;altitude;pressure_sealevel;temperature;humidity
55517;BME280;41724;51.176;-0.708;2023-08-30T00:01:23;100378.70;;;19.76;66.49
55517;BME280;41724;51.176;-0.708;2023-08-30T00:03:50;100380.00;;;19.52;66.86
55517;BME280;41724;51.176;-0.708;2023-08-30T00:06:17;100384.32;;;19.68;66.50
55517;BME280;41724;51.176;-0.708;2023-08-30T00:08:44;100389.04;;;19.87;65.65
55517;BME280;41724;51.176;-0.708;2023-08-30T00:11:11;100395.53;;;19.93;66.34
55517;BME280;41724;51.176;-0.708;2023-08-30T00:13:37;100398.49;;;19.93;65.62
55517;BME280;41724;51.176;-0.708;2023-08-30T00:16:04;100400.16;;;19.32;66.34
55517;BME280;41724;51.176;-0.708;2023-08-30T00:18:31;100402.15;;;19.37;66.61
55517;BME280;41724;51.176;-0.708;2023-08-30T00:20:58;100406.16;;;19.25;67.16
55517;BME280;41724;51.176;-0.708;2023-08-30T00:23:25;100400.53;;;19.23;67.78
55517;BME280;41724;51.176;-0.708;2023-08-30T00:25:53;100400.66;;;19.39;67.16
55517;BME280;41724;51.176;-0.708;2023-08-30T00:28:20;100402.02;;;19.41;65.75
55517;BME280;41724;51.176;-0.708;2023-08-30T00:30:53;100399.48;;;19.39;65.74
55517;BME280;41724;51.176;-0.708;2023-08-30T00:33:20;100397.45;;;19.31;65.71
55517;BME280;41724;51.176;-0.708;2023-08-30T00:35:55;100398.86;;;19.37;65.86
55517;BME280;41724;51.176;-0.708;2023-08-30T00:38:23;100395.61;;;19.49;65.31
55517;BME280;41724;51.176;-0.708;2023-08-30T00:40:49;100395.38;;;19.35;66.03
55517;BME280;41724;51.176;-0.708;2023-08-30T00:43:16;100390.98;;;19.69;66.03
55517;BME280;41724;51.176;-0.708;2023-08-30T00:45:44;100390.36;;;19.39;65.27
55517;BME280;41724;51.176;-0.708;2023-08-30T00:48:12;100388.96;;;19.34;65.32
55517;BME280;41724;51.176;-0.708;2023-08-30T00:50:41;100391.49;;;18.90;66.00
55517;BME280;41724;51.176;-0.708;2023-08-30T00:53:09;100389.02;;;18.73;67.05
55517;BME280;41724;51.176;-0.708;2023-08-30T00:55:38;100385.52;;;19.02;66.64
55517;BME280;41724;51.176;-0.708;2023-08-30T00:58:05;100382.90;;;18.82;67.15
55517;BME280;41724;51.176;-0.708;2023-08-30T01:00:33;100377.87;;;19.01;66.95
55517;BME280;41724;51.176;-0.708;2023-08-30T01:03:00;100376.61;;;18.66;67.38
55517;BME280;41724;51.176;-0.708;2023-08-30T01:05:27;100375.04;;;18.05;69.11
55517;BME280;41724;51.176;-0.708;2023-08-30T01:07:54;100375.68;;;18.53;67.59
55517;BME280;41724;51.176;-0.708;2023-08-30T01:10:36;100375.86;;;17.81;69.85
55517;BME280;41724;51.176;-0.708;2023-08-30T01:13:09;100380.07;;;18.16;69.69
55517;BME280;41724;51.176;-0.708;2023-08-30T01:15:38;100378.27;;;18.44;68.87
55517;BME280;41724;51.176;-0.708;2023-08-30T01:18:05;100377.80;;;18.20;69.38
55517;BME280;41724;51.176;-0.708;2023-08-30T01:20:35;100374.72;;;18.16;67.88
55517;BME280;41724;51.176;-0.708;2023-08-30T01:23:06;100372.16;;;18.49;67.30
55517;BME280;41724;51.176;-0.708;2023-08-30T01:25:43;100374.52;;;18.35;67.72
55517;BME280;41724;51.176;-0.708;2023-08-30T01:28:15;100370.89;;;18.37;67.23
55517;BME280;41724;51.176;-0.708;2023-08-30T01:30:43;100370.16;;;18.48;67.35
55517;BME280;41724;51.176;-0.708;2023-08-30T01:33:14;100373.52;;;18.27;67.35
55517;BME280;41724;51.176;-0.708;2023-08-30T01:35:42;100375.36;;;18.14;67.18
55517;BME280;41724;51.176;-0.708;2023-08-30T01:38:10;100377.81;;;18.37;66.87
55517;BME280;41724;51.176;-0.708;2023-08-30T01:40:38;100376.87;;;18.27;66.91
55517;BME280;41724;51.176;-0.708;2023-08-30T01:43:07;100378.19;;;18.19;67.33
55517;BME280;41724;51.176;-0.708;2023-08-30T01:45:36;100379.18;;;17.79;68.10
55517;BME280;41724;51.176;-0.708;2023-08-30T01:48:06;100377.11;;;16.78;71.27
55517;BME280;41724;51.176;-0.708;2023-08-30T01:50:34;100376.55;;;17.10;70.74
55517;BME280;41724;51.176;-0.708;2023-08-30T01:53:02;100371.45;;;16.16;74.88
55517;BME280;41724;51.176;-0.708;2023-08-30T01:55:30;100369.15;;;16.77;73.04
55517;BME280;41724;51.176;-0.708;2023-08-30T01:57:58;100369.89;;;17.07;70.23
55517;BME280;41724;51.176;-0.708;2023-08-30T02:00:25;100371.23;;;17.42;70.11
55517;BME280;41724;51.176;-0.708;2023-08-30T02:02:54;100373.21;;;17.07;70.56
55517;BME280;41724;51.176;-0.708;2023-08-30T02:05:21;100375.62;;;17.40;69.78
55517;BME280;41724;51.176;-0.708;2023-08-30T02:07:54;100379.16;;;17.23;69.77
55517;BME280;41724;51.176;-0.708;2023-08-30T02:10:23;100380.28;;;17.32;69.20
55517;BME280;41724;51.176;-0.708;2023-08-30T02:12:54;100377.57;;;17.00;70.33
55517;BME280;41724;51.176;-0.708;2023-08-30T02:15:25;100379.96;;;16.41;71.80
55517;BME280;41724;51.176;-0.708;2023-08-30T02:17:54;100378.68;;;16.26;72.33
55517;BME280;41724;51.176;-0.708;2023-08-30T02:20:22;100379.62;;;16.92;70.48
55517;BME280;41724;51.176;-0.708;2023-08-30T02:22:50;100376.63;;;17.16;69.34
55517;BME280;41724;51.176;-0.708;2023-08-30T02:25:18;100380.31;;;17.03;69.32
55517;BME280;41724;51.176;-0.708;2023-08-30T02:27:44;100380.12;;;16.89;68.63
55517;BME280;41724;51.176;-0.708;2023-08-30T02:30:12;100377.73;;;16.98;68.53
55517;BME280;41724;51.176;-0.708;2023-08-30T02:32:38;100381.96;;;17.28;68.21
55517;BME280;41724;51.176;-0.708;2023-08-30T02:35:06;100378.96;;;17.01;68.16
55517;BME280;41724;51.176;-0.708;2023-08-30T02:37:33;100381.84;;;16.71;69.44
55517;BME280;41724;51.176;-0.708;2023-08-30T02:40:00;100383.45;;;17.07;68.61
55517;BME280;41724;51.176;-0.708;2023-08-30T02:42:27;100381.90;;;16.92;67.90
55517;BME280;41724;51.176;-0.708;2023-08-30T02:44:54;100382.35;;;17.22;67.48
55517;BME280;41724;51.176;-0.708;2023-08-30T02:47:21;100377.85;;;17.34;67.53
55517;BME280;41724;51.176;-0.708;2023-08-30T02:49:48;100377.49;;;16.91;68.55
55517;BME280;41724;51.176;-0.708;2023-08-30T02:52:16;100373.24;;;16.32;69.81
55517;BME280;41724;51.176;-0.708;2023-08-30T02:54:43;100373.55;;;17.11;68.78
55517;BME280;41724;51.176;-0.708;2023-08-30T02:57:10;100373.03;;;17.10;68.58
55517;BME280;41724;51.176;-0.708;2023-08-30T02:59:37;100374.90;;;16.30;71.60
55517;BME280;41724;51.176;-0.708;2023-08-30T03:02:04;100375.89;;;16.61;69.61
55517;BME280;41724;51.176;-0.708;2023-08-30T03:04:31;100371.68;;;16.51;70.74
55517;BME280;41724;51.176;-0.708;2023-08-30T03:06:58;100369.62;;;16.95;69.25
55517;BME280;41724;51.176;-0.708;2023-08-30T03:09:25;100364.72;;;15.88;72.05
55517;BME280;41724;51.176;-0.708;2023-08-30T03:11:52;100363.31;;;15.83;73.39
55517;BME280;41724;51.176;-0.708;2023-08-30T03:14:19;100371.52;;;16.10;73.32
55517;BME280;41724;51.176;-0.708;2023-08-30T03:16:46;100372.30;;;16.56;70.54
55517;BME280;41724;51.176;-0.708;2023-08-30T03:19:13;100375.78;;;16.77;69.66
55517;BME280;41724;51.176;-0.708;2023-08-30T03:21:40;100373.59;;;16.49;70.97
55517;BME280;41724;51.176;-0.708;2023-08-30T03:24:07;100373.98;;;17.23;68.96
55517;BME280;41724;51.176;-0.708;2023-08-30T03:26:34;100378.14;;;16.22;71.09
55517;BME280;41724;51.176;-0.708;2023-08-30T03:29:02;100375.52;;;16.57;69.85
55517;BME280;41724;51.176;-0.708;2023-08-30T03:31:29;100380.92;;;16.77;69.00
55517;BME280;41724;51.176;-0.708;2023-08-30T03:33:56;100378.10;;;16.95;68.52
55517;BME280;41724;51.176;-0.708;2023-08-30T03:36:23;100376.47;;;16.81;68.86
55517;BME280;41724;51.176;-0.708;2023-08-30T03:38:50;100368.91;;;16.11;69.85
55517;BME280;41724;51.176;-0.708;2023-08-30T03:41:18;100371.53;;;16.38;68.36
55517;BME280;41724;51.176;-0.708;2023-08-30T03:43:44;100376.75;;;16.81;67.86
55517;BME280;41724;51.176;-0.708;2023-08-30T03:46:12;100374.45;;;16.70;67.27
55517;BME280;41724;51.176;-0.708;2023-08-30T03:48:39;100375.11;;;16.53;66.50
55517;BME280;41724;51.176;-0.708;2023-08-30T03:51:06;100374.75;;;16.53;67.57
55517;BME280;41724;51.176;-0.708;2023-08-30T03:53:33;100372.82;;;16.60;65.64
55517;BME280;41724;51.176;-0.708;2023-08-30T03:56:01;100370.21;;;16.81;65.49
55517;BME280;41724;51.176;-0.708;2023-08-30T03:58:28;100367.34;;;16.25;65.44
55517;BME280;41724;51.176;-0.708;2023-08-30T04:00:55;100365.52;;;16.28;65.94
55517;BME280;41724;51.176;-0.708;2023-08-30T04:03:23;100369.06;;;14.62;68.71
55517;BME280;41724;51.176;-0.708;2023-08-30T04:05:55;100370.21;;;15.37;67.24
55517;BME280;41724;51.176;-0.708;2023-08-30T04:08:22;100371.53;;;15.82;65.86
55517;BME280;41724;51.176;-0.708;2023-08-30T04:10:52;100371.33;;;15.41;66.30
55517;BME280;41724;51.176;-0.708;2023-08-30T04:13:20;100373.25;;;15.12;67.28
55517;BME280;41724;51.176;-0.708;2023-08-30T04:15:47;100374.32;;;15.62;66.51
55517;BME280;41724;51.176;-0.708;2023-08-30T04:18:13;100378.06;;;15.56;65.33
55517;BME280;41724;51.176;-0.708;2023-08-30T04:20:44;100380.17;;;15.49;65.30
55517;BME280;41724;51.176;-0.708;2023-08-30T04:23:11;100379.94;;;15.08;65.39
55517;BME280;41724;51.176;-0.708;2023-08-30T04:25:38;100378.81;;;15.94;63.99
55517;BME280;41724;51.176;-0.708;2023-08-30T04:28:05;100382.71;;;15.90;63.67
55517;BME280;41724;51.176;-0.708;2023-08-30T04:30:35;100384.80;;;15.74;64.43
55517;BME280;41724;51.176;-0.708;2023-08-30T04:33:02;100386.32;;;15.26;64.03
55517;BME280;41724;51.176;-0.708;2023-08-30T04:35:30;100390.60;;;15.27;64.60
55517;BME280;41724;51.176;-0.708;2023-08-30T04:37:58;100389.39;;;15.48;64.09
55517;BME280;41724;51.176;-0.708;2023-08-30T04:40:26;100389.45;;;15.08;64.66
55517;BME280;41724;51.176;-0.708;2023-08-30T04:42:53;100380.59;;;15.39;64.74
55517;BME280;41724;51.176;-0.708;2023-08-30T04:45:21;100377.58;;;15.28;63.87
55517;BME280;41724;51.176;-0.708;2023-08-30T04:47:48;100383.44;;;15.24;63.21
55517;BME280;41724;51.176;-0.708;2023-08-30T04:50:15;100386.24;;;15.17;63.67
55517;BME280;41724;51.176;-0.708;2023-08-30T04:52:42;100396.32;;;15.50;63.34
55517;BME280;41724;51.176;-0.708;2023-08-30T04:55:09;100391.97;;;15.32;64.07
55517;BME280;41724;51.176;-0.708;2023-08-30T04:57:36;100392.60;;;14.70;65.86
55517;BME280;41724;51.176;-0.708;2023-08-30T05:00:05;100399.97;;;14.17;67.50
55517;BME280;41724;51.176;-0.708;2023-08-30T05:02:33;100400.80;;;14.50;66.36
55517;BME280;41724;51.176;-0.708;2023-08-30T05:05:00;100399.43;;;14.66;65.94
55517;BME280;41724;51.176;-0.708;2023-08-30T05:07:28;100398.47;;;14.72;65.66
55517;BME280;41724;51.176;-0.708;2023-08-30T05:09:55;100400.10;;;14.57;65.10
55517;BME280;41724;51.176;-0.708;2023-08-30T05:12:22;100400.29;;;14.88;64.86
55517;BME280;41724;51.176;-0.708;2023-08-30T05:14:49;100406.63;;;14.58;64.75
55517;BME280;41724;51.176;-0.708;2023-08-30T05:17:16;100408.59;;;14.91;64.19
55517;BME280;41724;51.176;-0.708;2023-08-30T05:19:43;100409.13;;;14.51;64.97
55517;BME280;41724;51.176;-0.708;2023-08-30T05:22:10;100407.66;;;14.71;64.97
55517;BME280;41724;51.176;-0.708;2023-08-30T05:24:38;100410.16;;;14.28;65.52
55517;BME280;41724;51.176;-0.708;2023-08-30T05:27:05;100411.55;;;15.01;63.85
55517;BME280;41724;51.176;-0.708;2023-08-30T05:29:32;100414.58;;;13.41;67.04
55517;BME280;41724;51.176;-0.708;2023-08-30T05:31:59;100410.06;;;13.77;67.75
55517;BME280;41724;51.176;-0.708;2023-08-30T05:34:26;100412.38;;;13.51;67.98
55517;BME280;41724;51.176;-0.708;2023-08-30T05:36:58;100412.97;;;14.30;66.14
55517;BME280;41724;51.176;-0.708;2023-08-30T05:39:25;100410.89;;;13.91;68.44
55517;BME280;41724;51.176;-0.708;2023-08-30T05:41:53;100414.06;;;13.87;67.57
55517;BME280;41724;51.176;-0.708;2023-08-30T05:44:19;100412.74;;;13.65;67.51
55517;BME280;41724;51.176;-0.708;2023-08-30T05:46:47;100412.03;;;13.60;68.87
55517;BME280;41724;51.176;-0.708;2023-08-30T05:49:14;100410.76;;;14.20;66.32
55517;BME280;41724;51.176;-0.708;2023-08-30T05:51:41;100409.48;;;14.24;66.06
55517;BME280;41724;51.176;-0.708;2023-08-30T05:54:08;100411.48;;;13.86;66.27
55517;BME280;41724;51.176;-0.708;2023-08-30T05:56:35;100405.58;;;14.53;65.15
55517;BME280;41724;51.176;-0.708;2023-08-30T05:59:02;100405.89;;;14.59;64.71
55517;BME280;41724;51.176;-0.708;2023-08-30T06:01:29;100403.06;;;14.91;63.40
55517;BME280;41724;51.176;-0.708;2023-08-30T06:03:56;100401.96;;;14.57;64.06
55517;BME280;41724;51.176;-0.708;2023-08-30T06:06:23;100405.07;;;14.37;64.71
55517;BME280;41724;51.176;-0.708;2023-08-30T06:08:50;100406.93;;;14.83;64.21
55517;BME280;41724;51.176;-0.708;2023-08-30T06:11:17;100406.46;;;15.08;63.26
55517;BME280;41724;51.176;-0.708;2023-08-30T06:13:44;100405.87;;;15.03;62.63
55517;BME280;41724;51.176;-0.708;2023-08-30T06:16:11;100409.45;;;15.24;62.83
55517;BME280;41724;51.176;-0.708;2023-08-30T06:18:38;100408.60;;;14.76;63.30
55517;BME280;41724;51.176;-0.708;2023-08-30T06:21:06;100409.37;;;14.89;64.07
55517;BME280;41724;51.176;-0.708;2023-08-30T06:23:33;100413.19;;;14.73;64.23
55517;BME280;41724;51.176;-0.708;2023-08-30T06:26:00;100411.59;;;15.13;64.22
55517;BME280;41724;51.176;-0.708;2023-08-30T06:28:27;100413.86;;;14.80;63.75
55517;BME280;41724;51.176;-0.708;2023-08-30T06:30:54;100414.97;;;14.89;63.59
55517;BME280;41724;51.176;-0.708;2023-08-30T06:33:22;100414.93;;;14.88;64.10
55517;BME280;41724;51.176;-0.708;2023-08-30T06:35:49;100411.50;;;15.58;63.31
55517;BME280;41724;51.176;-0.708;2023-08-30T06:38:16;100411.55;;;14.88;65.02
55517;BME280;41724;51.176;-0.708;2023-08-30T06:40:44;100414.77;;;14.86;64.52
55517;BME280;41724;51.176;-0.708;2023-08-30T06:43:11;100418.01;;;14.83;65.00
55517;BME280;41724;51.176;-0.708;2023-08-30T06:45:39;100420.60;;;15.11;64.88
55517;BME280;41724;51.176;-0.708;2023-08-30T06:48:07;100421.40;;;15.07;65.42
55517;BME280;41724;51.176;-0.708;2023-08-30T06:50:34;100418.64;;;14.73;67.03
55517;BME280;41724;51.176;-0.708;2023-08-30T06:53:01;100425.27;;;14.35;69.22
55517;BME280;41724;51.176;-0.708;2023-08-30T06:55:28;100424.42;;;14.50;68.76
55517;BME280;41724;51.176;-0.708;2023-08-30T06:57:55;100415.86;;;15.19;67.34
55517;BME280;41724;51.176;-0.708;2023-08-30T07:00:22;100414.13;;;14.86;67.94
55517;BME280;41724;51.176;-0.708;2023-08-30T07:02:50;100408.63;;;13.93;69.62
55517;BME280;41724;51.176;-0.708;2023-08-30T07:05:17;100405.60;;;15.18;67.82
55517;BME280;41724;51.176;-0.708;2023-08-30T07:07:43;100413.47;;;13.34;75.89
55517;BME280;41724;51.176;-0.708;2023-08-30T07:10:10;100409.46;;;14.67;70.33
55517;BME280;41724;51.176;-0.708;2023-08-30T07:12:37;100413.98;;;15.04;70.20
55517;BME280;41724;51.176;-0.708;2023-08-30T07:15:06;100416.09;;;14.82;70.40
55517;BME280;41724;51.176;-0.708;2023-08-30T07:17:33;100416.84;;;14.55;71.96
55517;BME280;41724;51.176;-0.708;2023-08-30T07:20:00;100419.88;;;15.26;69.15
55517;BME280;41724;51.176;-0.708;2023-08-30T07:22:27;100427.05;;;15.08;68.72
55517;BME280;41724;51.176;-0.708;2023-08-30T07:24:54;100430.38;;;14.95;69.94
55517;BME280;41724;51.176;-0.708;2023-08-30T07:27:21;100431.26;;;15.04;69.38
55517;BME280;41724;51.176;-0.708;2023-08-30T07:29:48;100434.41;;;15.53;68.40
55517;BME280;41724;51.176;-0.708;2023-08-30T07:32:15;100439.17;;;15.42;68.03
55517;BME280;41724;51.176;-0.708;2023-08-30T07:34:42;100441.32;;;14.38;71.08
55517;BME280;41724;51.176;-0.708;2023-08-30T07:37:17;100441.87;;;15.38;69.93
55517;BME280;41724;51.176;-0.708;2023-08-30T07:39:45;100437.11;;;15.51;69.74
55517;BME280;41724;51.176;-0.708;2023-08-30T07:42:13;100431.47;;;15.74;69.85
55517;BME280;41724;51.176;-0.708;2023-08-30T07:44:40;100432.58;;;16.32;67.70
55517;BME280;41724;51.176;-0.708;2023-08-30T07:47:06;100443.83;;;16.85;66.13
55517;BME280;41724;51.176;-0.708;2023-08-30T07:49:34;100440.44;;;17.02;65.86
55517;BME280;41724;51.176;-0.708;2023-08-30T07:52:00;100444.33;;;16.93;65.68
55517;BME280;41724;51.176;-0.708;2023-08-30T07:54:28;100442.62;;;16.69;64.51
55517;BME280;41724;51.176;-0.708;2023-08-30T07:56:55;100442.31;;;16.28;64.85
55517;BME280;41724;51.176;-0.708;2023-08-30T07:59:22;100437.55;;;16.80;66.64
55517;BME280;41724;51.176;-0.708;2023-08-30T08:01:49;100437.46;;;14.74;73.35
55517;BME280;41724;51.176;-0.708;2023-08-30T08:04:16;100440.55;;;15.58;71.94
55517;BME280;41724;51.176;-0.708;2023-08-30T08:06:43;100438.31;;;15.02;72.00
55517;BME280;41724;51.176;-0.708;2023-08-30T08:09:10;100431.32;;;16.50;68.13
55517;BME280;41724;51.176;-0.708;2023-08-30T08:11:37;100433.82;;;16.81;66.84
55517;BME280;41724;51.176;-0.708;2023-08-30T08:14:04;100429.93;;;17.00;65.65
55517;BME280;41724;51.176;-0.708;2023-08-30T08:16:31;100433.05;;;17.15;64.83
55517;BME280;41724;51.176;-0.708;2023-08-30T08:18:58;100433.24;;;17.46;65.43
55517;BME280;41724;51.176;-0.708;2023-08-30T08:21:26;100434.92;;;17.40;63.77
55517;BME280;41724;51.176;-0.708;2023-08-30T08:23:53;100434.93;;;17.28;63.62
55517;BME280;41724;51.176;-0.708;2023-08-30T08:26:20;100440.78;;;17.83;64.13
55517;BME280;41724;51.176;-0.708;2023-08-30T08:28:47;100436.27;;;16.97;64.74
55517;BME280;41724;51.176;-0.708;2023-08-30T08:31:14;100438.48;;;17.91;62.10
55517;BME280;41724;51.176;-0.708;2023-08-30T08:33:41;100434.86;;;17.42;62.34
55517;BME280;41724;51.176;-0.708;2023-08-30T08:36:08;100438.47;;;15.89;67.76
55517;BME280;41724;51.176;-0.708;2023-08-30T08:38:35;100437.96;;;16.49;66.72
55517;BME280;41724;51.176;-0.708;2023-08-30T08:41:05;100440.23;;;16.95;64.84
55517;BME280;41724;51.176;-0.708;2023-08-30T08:43:33;100438.03;;;17.64;61.92
55517;BME280;41724;51.176;-0.708;2023-08-30T08:46:00;100436.68;;;18.13;60.92
55517;BME280;41724;51.176;-0.708;2023-08-30T08:48:40;100433.83;;;18.18;61.97
55517;BME280;41724;51.176;-0.708;2023-08-30T08:51:07;100434.99;;;18.46;60.96
55517;BME280;41724;51.176;-0.708;2023-08-30T08:53:34;100437.52;;;18.63;59.99
55517;BME280;41724;51.176;-0.708;2023-08-30T08:56:02;100439.42;;;17.73;60.99
55517;BME280;41724;51.176;-0.708;2023-08-30T08:58:31;100440.23;;;18.18;60.26
55517;BME280;41724;51.176;-0.708;2023-08-30T09:01:04;100437.06;;;18.44;58.45
55517;BME280;41724;51.176;-0.708;2023-08-30T09:03:33;100437.43;;;18.05;60.30
55517;BME280;41724;51.176;-0.708;2023-08-30T09:06:03;100439.90;;;19.13;59.25
55517;BME280;41724;51.176;-0.708;2023-08-30T09:08:31;100433.77;;;19.61;56.69
55517;BME280;41724;51.176;-0.708;2023-08-30T09:10:57;100430.51;;;19.46;55.06
55517;BME280;41724;51.176;-0.708;2023-08-30T09:13:24;100435.24;;;18.51;56.85
55517;BME280;41724;51.176;-0.708;2023-08-30T09:15:51;100436.18;;;19.04;57.74
55517;BME280;41724;51.176;-0.708;2023-08-30T09:18:18;100434.55;;;18.77;57.71
55517;BME280;41724;51.176;-0.708;2023-08-30T09:20:46;100430.75;;;18.81;59.19
55517;BME280;41724;51.176;-0.708;2023-08-30T09:23:17;100424.27;;;19.34;55.92
55517;BME280;41724;51.176;-0.708;2023-08-30T09:25:44;100424.46;;;19.13;55.58
55517;BME280;41724;51.176;-0.708;2023-08-30T09:28:12;100428.84;;;18.56;57.52
55517;BME280;41724;51.176;-0.708;2023-08-30T09:30:39;100428.87;;;18.75;54.54
55517;BME280;41724;51.176;-0.708;2023-08-30T09:33:06;100421.25;;;19.00;54.06
55517;BME280;41724;51.176;-0.708;2023-08-30T09:35:43;100417.55;;;19.40;55.09
55517;BME280;41724;51.176;-0.708;2023-08-30T09:38:16;100419.73;;;20.09;52.80
55517;BME280;41724;51.176;-0.708;2023-08-30T09:40:43;100426.39;;;19.00;55.69
55517;BME280;41724;51.176;-0.708;2023-08-30T09:43:10;100425.12;;;19.12;58.64
55517;BME280;41724;51.176;-0.708;2023-08-30T09:45:38;100416.23;;;19.41;54.01
55517;BME280;41724;51.176;-0.708;2023-08-30T09:48:06;100418.05;;;19.34;55.62
55517;BME280;41724;51.176;-0.708;2023-08-30T09:50:34;100422.30;;;19.54;55.60
55517;BME280;41724;51.176;-0.708;2023-08-30T09:53:05;100423.20;;;19.22;53.48
55517;BME280;41724;51.176;-0.708;2023-08-30T09:55:33;100426.56;;;20.09;53.56
55517;BME280;41724;51.176;-0.708;2023-08-30T09:58:02;100425.61;;;18.84;54.64
55517;BME280;41724;51.176;-0.708;2023-08-30T10:00:29;100416.26;;;19.01;54.99
55517;BME280;41724;51.176;-0.708;2023-08-30T10:02:58;100414.98;;;18.74;53.79
55517;BME280;41724;51.176;-0.708;2023-08-30T10:05:26;100413.50;;;19.42;52.83
55517;BME280;41724;51.176;-0.708;2023-08-30T10:07:55;100425.83;;;18.30;52.23
55517;BME280;41724;51.176;-0.708;2023-08-30T10:10:23;100412.12;;;18.95;51.64
55517;BME280;41724;51.176;-0.708;2023-08-30T10:12:51;100414.05;;;19.71;51.84
55517;BME280;41724;51.176;-0.708;2023-08-30T10:15:21;100415.34;;;20.13;50.76
55517;BME280;41724;51.176;-0.708;2023-08-30T10:17:52;100409.47;;;20.47;48.90
55517;BME280;41724;51.176;-0.708;2023-08-30T10:20:20;100415.46;;;20.01;49.82
55517;BME280;41724;51.176;-0.708;2023-08-30T10:22:49;100415.09;;;18.90;50.42
55517;BME280;41724;51.176;-0.708;2023-08-30T10:25:20;100416.91;;;19.72;49.65
55517;BME280;41724;51.176;-0.708;2023-08-30T10:27:49;100414.05;;;19.35;50.50
55517;BME280;41724;51.176;-0.708;2023-08-30T10:30:18;100411.91;;;20.04;50.01
55517;BME280;41724;51.176;-0.708;2023-08-30T10:32:47;100410.26;;;20.60;48.02
55517;BME280;41724;51.176;-0.708;2023-08-30T10:35:16;100411.64;;;19.27;50.48
55517;BME280;41724;51.176;-0.708;2023-08-30T10:37:55;100408.54;;;20.19;48.86
55517;BME280;41724;51.176;-0.708;2023-08-30T10:40:22;100407.43;;;20.55;46.64
55517;BME280;41724;51.176;-0.708;2023-08-30T10:42:59;100410.29;;;20.81;47.12
55517;BME280;41724;51.176;-0.708;2023-08-30T10:45:26;100411.28;;;20.69;48.15
55517;BME280;41724;51.176;-0.708;2023-08-30T10:47:55;100415.14;;;19.92;48.85
55517;BME280;41724;51.176;-0.708;2023-08-30T10:50:29;100415.36;;;19.37;49.55
55517;BME280;41724;51.176;-0.708;2023-08-30T10:52:56;100419.33;;;18.93;49.48
55517;BME280;41724;51.176;-0.708;2023-08-30T10:55:24;100420.23;;;20.01;48.37
55517;BME280;41724;51.176;-0.708;2023-08-30T10:58:00;100418.02;;;19.98;46.77
55517;BME280;41724;51.176;-0.708;2023-08-30T11:00:28;100416.34;;;20.44;46.29
55517;BME280;41724;51.176;-0.708;2023-08-30T11:02:57;100413.46;;;20.63;45.27
55517;BME280;41724;51.176;-0.708;2023-08-30T11:05:26;100410.74;;;20.89;45.60
55517;BME280;41724;51.176;-0.708;2023-08-30T11:07:53;100403.11;;;20.91;46.04
55517;BME280;41724;51.176;-0.708;2023-08-30T11:10:21;100407.15;;;21.67;45.46
55517;BME280;41724;51.176;-0.708;2023-08-30T11:12:48;100415.81;;;20.72;45.54
55517;BME280;41724;51.176;-0.708;2023-08-30T11:15:16;100417.81;;;21.27;44.52
55517;BME280;41724;51.176;-0.708;2023-08-30T11:17:43;100416.94;;;20.72;42.19
55517;BME280;41724;51.176;-0.708;2023-08-30T11:20:12;100411.97;;;21.49;42.96
55517;BME280;41724;51.176;-0.708;2023-08-30T11:22:42;100412.56;;;20.53;44.31
55517;BME280;41724;51.176;-0.708;2023-08-30T11:25:10;100410.50;;;20.67;44.49
55517;BME280;41724;51.176;-0.708;2023-08-30T11:27:43;100410.64;;;20.63;45.73
55517;BME280;41724;51.176;-0.708;2023-08-30T11:30:11;100408.80;;;21.06;46.96
55517;BME280;41724;51.176;-0.708;2023-08-30T11:32:40;100401.17;;;20.50;47.35
55517;BME280;41724;51.176;-0.708;2023-08-30T11:35:08;100398.49;;;20.60;47.25
55517;BME280;41724;51.176;-0.708;2023-08-30T11:37:36;100395.82;;;19.95;46.75
55517;BME280;41724;51.176;-0.708;2023-08-30T11:40:04;100392.56;;;19.39;48.48
55517;BME280;41724;51.176;-0.708;2023-08-30T11:42:31;100388.38;;;19.89;48.14
55517;BME280;41724;51.176;-0.708;2023-08-30T11:45:00;100394.23;;;19.80;48.11
55517;BME280;41724;51.176;-0.708;2023-08-30T11:47:28;100392.28;;;20.17;45.86
55517;BME280;41724;51.176;-0.708;2023-08-30T11:49:56;100392.25;;;19.27;47.87
55517;BME280;41724;51.176;-0.708;2023-08-30T11:52:25;100389.15;;;21.28;43.47
55517;BME280;41724;51.176;-0.708;2023-08-30T11:54:54;100386.03;;;21.30;42.86
55517;BME280;41724;51.176;-0.708;2023-08-30T11:57:21;100388.09;;;20.77;41.10
55517;BME280;41724;51.176;-0.708;2023-08-30T11:59:48;100386.34;;;20.63;43.26
55517;BME280;41724;51.176;-0.708;2023-08-30T12:02:16;100384.89;;;19.73;44.92
55517;BME280;41724;51.176;-0.708;2023-08-30T12:04:45;100377.65;;;20.70;45.21
55517;BME280;41724;51.176;-0.708;2023-08-30T12:07:21;100375.68;;;20.68;43.76
55517;BME280;41724;51.176;-0.708;2023-08-30T12:09:48;100373.92;;;20.22;40.69
55517;BME280;41724;51.176;-0.708;2023-08-30T12:12:14;100377.86;;;20.67;42.52
55517;BME280;41724;51.176;-0.708;2023-08-30T12:14:41;100379.00;;;22.10;39.72
55517;BME280;41724;51.176;-0.708;2023-08-30T12:17:08;100388.25;;;21.87;40.05
55517;BME280;41724;51.176;-0.708;2023-08-30T12:19:35;100382.75;;;22.17;38.03
55517;BME280;41724;51.176;-0.708;2023-08-30T12:22:04;100382.53;;;22.07;37.62
55517;BME280;41724;51.176;-0.708;2023-08-30T12:24:44;100384.23;;;21.74;38.43
55517;BME280;41724;51.176;-0.708;2023-08-30T12:27:11;100378.72;;;22.60;36.83
55517;BME280;41724;51.176;-0.708;2023-08-30T12:29:38;100391.29;;;21.59;38.88
55517;BME280;41724;51.176;-0.708;2023-08-30T12:32:06;100387.30;;;22.65;38.85
55517;BME280;41724;51.176;-0.708;2023-08-30T12:34:33;100397.85;;;23.23;37.07
55517;BME280;41724;51.176;-0.708;2023-08-30T12:37:00;100397.02;;;21.56;38.90
55517;BME280;41724;51.176;-0.708;2023-08-30T12:39:32;100387.21;;;21.52;39.64
55517;BME280;41724;51.176;-0.708;2023-08-30T12:41:59;100392.64;;;21.92;37.64
55517;BME280;41724;51.176;-0.708;2023-08-30T12:44:27;100388.01;;;22.93;38.97